Time;durP1;ratioP1;P1;durP2;ratioP2;P2;SDS_P1;SDS_P2;PMS_P1;PMS_P2;Temp;Humidity;BMP_temperature;BMP_pressure;BME280_temperature;BME280_humidity;BME280_pressure;Samples;Min_cycle;Max_cycle;Signal;HPM_P1;HPM_P2
2022/01/21 00:00:21;;;;;;;0.10;0.10;;;0.00;99.90;226.50;231333.00;;;;4999402;28;20188;-73
2022/01/21 00:02:51;;;;;;;0.10;0.10;;;0.00;99.90;226.50;231333.00;;;;4997519;28;20230;-74
2022/01/21 00:05:23;;;;;;;0.10;0.10;;;0.20;99.90;226.50;231333.00;;;;4998246;28;20211;-73
2022/01/21 00:07:54;;;;;;;0.10;0.10;;;0.20;99.90;226.50;231333.00;;;;4999753;28;20200;-73
2022/01/21 00:10:24;;;;;;;0.10;0.10;;;0.20;99.90;226.50;231333.00;;;;4998998;28;20211;-73
2022/01/21 00:12:54;;;;;;;0.10;0.10;;;0.30;99.90;226.50;231333.00;;;;4999388;28;20232;-73
2022/01/21 00:15:23;;;;;;;0.10;0.10;;;0.30;99.90;226.50;231333.00;;;;4999401;28;20668;-72
2022/01/21 00:17:53;;;;;;;0.10;0.10;;;0.40;99.90;226.50;231333.00;;;;4998248;28;20203;-73
2022/01/21 00:31:34;;;;;;;0.10;0.10;;;-0.10;99.90;226.50;231333.00;;;;5000469;28;20230;-72
2022/01/21 00:34:05;;;;;;;0.10;0.10;;;-0.20;99.90;226.50;231333.00;;;;4999045;28;20673;-73
2022/01/21 00:36:34;;;;;;;0.10;0.10;;;-0.40;99.90;226.50;231333.00;;;;5003113;28;20204;-73
2022/01/21 00:39:06;;;;;;;0.10;0.10;;;-0.50;99.90;226.50;231333.00;;;;5012840;28;20208;-72
2022/01/21 00:41:42;;;;;;;0.10;0.10;;;-0.60;99.90;226.50;231333.00;;;;4996337;28;20216;-73
2022/01/21 00:44:12;;;;;;;0.15;0.15;;;-0.70;99.90;226.50;231333.00;;;;4999948;28;20203;-72
2022/01/21 00:46:42;;;;;;;0.20;0.20;;;-0.60;99.90;226.50;231333.00;;;;4995439;28;20204;-72
2022/01/21 00:49:12;;;;;;;0.20;0.20;;;-0.70;99.90;226.50;231333.00;;;;4998988;28;20218;-73
2022/01/21 00:51:42;;;;;;;0.10;0.10;;;-0.70;99.90;226.50;231333.00;;;;5014790;28;20231;-72
2022/01/21 00:54:13;;;;;;;0.10;0.10;;;-0.80;99.90;226.50;231333.00;;;;5001526;28;20220;-72
2022/01/21 00:56:43;;;;;;;0.10;0.10;;;-0.80;99.90;226.50;231333.00;;;;5019664;28;20595;-72
2022/01/21 00:59:14;;;;;;;0.10;0.10;;;-0.80;99.90;226.50;231333.00;;;;5003666;28;20192;-73
2022/01/21 01:01:44;;;;;;;0.10;0.10;;;-0.70;99.90;226.50;231333.00;;;;5008915;28;20774;-73
2022/01/21 01:04:15;;;;;;;0.10;0.10;;;-0.80;99.90;226.50;231333.00;;;;5004930;28;20196;-72
2022/01/21 01:06:45;;;;;;;0.20;0.20;;;-0.80;99.90;226.50;231333.00;;;;4996007;28;21011;-71
2022/01/21 01:09:16;;;;;;;0.20;0.20;;;-0.90;99.90;226.50;231333.00;;;;4999124;28;20254;-72
2022/01/21 01:11:55;;;;;;;0.10;0.10;;;-0.80;99.90;226.50;231333.00;;;;4995825;28;20220;-73
2022/01/21 01:20:10;;;;;;;0.20;0.20;;;-0.90;99.90;226.50;231333.00;;;;4996151;28;20273;-74
2022/01/21 01:22:49;;;;;;;0.10;0.10;;;-1.00;99.90;226.50;231333.00;;;;4995648;28;20234;-73
2022/01/21 01:28:09;;;;;;;0.20;0.20;;;-1.00;99.90;226.50;231333.00;;;;4997213;28;20197;-75
2022/01/21 01:30:40;;;;;;;0.20;0.20;;;-1.00;99.90;226.50;231333.00;;;;4997405;28;20216;-73
2022/01/21 01:33:13;;;;;;;0.10;0.10;;;-1.10;99.90;226.50;231333.00;;;;4995461;28;20220;-73
2022/01/21 01:35:44;;;;;;;0.10;0.10;;;-1.10;99.90;226.50;231333.00;;;;5010546;28;20239;-72
2022/01/21 01:38:37;;;;;;;0.10;0.10;;;-1.00;99.90;226.50;231333.00;;;;5013476;28;20537;-72
2022/01/21 01:41:12;;;;;;;0.10;0.10;;;-1.10;99.90;226.50;231333.00;;;;4995777;28;20212;-73
2022/01/21 01:49:31;;;;;;;0.20;0.20;;;-1.00;99.90;226.50;231333.00;;;;5000532;28;20215;-73
2022/01/21 01:52:03;;;;;;;0.10;0.10;;;-1.10;99.90;226.50;231333.00;;;;5015632;28;20231;-72
2022/01/21 01:54:36;;;;;;;0.20;0.20;;;-1.00;99.90;226.50;231333.00;;;;4999853;28;20197;-73
2022/01/21 01:57:09;;;;;;;0.10;0.10;;;-1.20;99.90;226.50;231333.00;;;;4999224;28;20604;-74
2022/01/21 01:59:39;;;;;;;0.10;0.10;;;-1.10;99.90;226.50;231333.00;;;;5000621;28;20203;-72
2022/01/21 02:02:13;;;;;;;0.10;0.10;;;-1.20;99.90;226.50;231333.00;;;;5006913;28;20224;-73
2022/01/21 02:04:45;;;;;;;0.10;0.10;;;-1.30;99.90;226.50;231333.00;;;;5001047;28;20649;-72
2022/01/21 02:07:16;;;;;;;0.10;0.10;;;-1.30;99.90;226.50;231333.00;;;;5003742;28;20246;-72
2022/01/21 02:09:47;;;;;;;0.20;0.20;;;-1.30;99.90;226.50;231333.00;;;;5000048;28;20199;-73
2022/01/21 02:12:19;;;;;;;0.10;0.10;;;-1.30;99.90;226.50;231333.00;;;;5000667;28;20231;-73
2022/01/21 02:14:52;;;;;;;0.10;0.10;;;-1.30;99.90;226.50;231333.00;;;;5014460;28;20253;-73
2022/01/21 02:22:58;;;;;;;0.10;0.10;;;-1.10;99.90;226.50;231333.00;;;;5007279;28;20216;-73
2022/01/21 02:25:28;;;;;;;0.10;0.10;;;-1.30;99.90;226.50;231333.00;;;;4999316;28;20653;-74
2022/01/21 02:28:00;;;;;;;0.10;0.10;;;-1.20;99.90;226.50;231333.00;;;;4998516;28;20639;-74
2022/01/21 02:30:36;;;;;;;0.10;0.10;;;-1.20;99.90;226.50;231333.00;;;;5002840;28;20219;-74
2022/01/21 02:33:05;;;;;;;0.10;0.10;;;-1.30;99.90;226.50;231333.00;;;;5001268;28;20220;-75
2022/01/21 02:35:35;;;;;;;0.10;0.10;;;-1.40;99.90;226.50;231333.00;;;;4999135;28;20200;-74
2022/01/21 02:38:06;;;;;;;0.10;0.10;;;-1.40;99.90;226.50;231333.00;;;;5000025;28;20570;-74
2022/01/21 02:40:35;;;;;;;0.17;0.17;;;-1.40;99.90;226.50;231333.00;;;;4999189;28;20257;-75
2022/01/21 02:43:06;;;;;;;0.10;0.10;;;-1.50;99.90;226.50;231333.00;;;;4999504;28;20211;-74
2022/01/21 02:45:38;;;;;;;0.10;0.10;;;-1.60;99.90;226.50;231333.00;;;;5013611;28;20291;-74
2022/01/21 02:48:09;;;;;;;0.10;0.10;;;-1.60;99.90;226.50;231333.00;;;;5000715;28;20207;-74
2022/01/21 02:50:43;;;;;;;0.10;0.10;;;-1.50;99.90;226.50;231333.00;;;;5013810;28;20552;-74
2022/01/21 02:53:26;;;;;;;0.10;0.10;;;-1.50;99.90;226.50;231333.00;;;;5000066;28;20254;-74
2022/01/21 02:55:56;;;;;;;0.10;0.10;;;-1.50;99.90;226.50;231333.00;;;;4998093;28;20918;-74
2022/01/21 02:58:25;;;;;;;0.10;0.10;;;-1.50;99.90;226.50;231333.00;;;;5015689;28;20203;-74
2022/01/21 03:00:55;;;;;;;0.20;0.20;;;-1.50;99.90;226.50;231333.00;;;;5015212;28;20336;-75
2022/01/21 03:03:25;;;;;;;0.10;0.10;;;-1.40;99.90;226.50;231333.00;;;;5000016;28;20692;-75
2022/01/21 03:05:55;;;;;;;0.10;0.10;;;-1.40;99.90;226.50;231333.00;;;;5014184;28;20202;-74
2022/01/21 03:08:28;;;;;;;0.20;0.20;;;-1.50;99.90;226.50;231333.00;;;;5015662;28;20243;-74
2022/01/21 03:10:58;;;;;;;0.20;0.20;;;-1.50;99.90;226.50;231333.00;;;;4997976;28;20188;-74
2022/01/21 03:13:28;;;;;;;0.20;0.20;;;-1.50;99.90;226.50;231333.00;;;;5015922;28;20232;-74
2022/01/21 03:15:57;;;;;;;0.20;0.20;;;-1.50;99.90;226.50;231333.00;;;;4999460;28;20205;-75
2022/01/21 03:18:27;;;;;;;0.10;0.10;;;-1.60;99.90;226.50;231333.00;;;;5014985;28;20200;-75
2022/01/21 03:20:57;;;;;;;0.20;0.20;;;-1.70;99.90;226.50;231333.00;;;;5013779;28;20188;-74
2022/01/21 03:23:29;;;;;;;0.10;0.10;;;-1.70;99.90;226.50;231333.00;;;;4998729;28;20705;-75
2022/01/21 03:25:59;;;;;;;0.10;0.10;;;-1.80;99.90;226.50;231333.00;;;;4999421;28;20204;-74
2022/01/21 03:28:53;;;;;;;0.10;0.10;;;-1.90;99.90;226.50;231333.00;;;;5001248;28;20231;-74
2022/01/21 03:31:24;;;;;;;0.20;0.20;;;-1.90;99.90;226.50;231333.00;;;;4998356;28;20224;-74
2022/01/21 03:33:59;;;;;;;0.20;0.20;;;-2.00;99.90;226.50;231333.00;;;;4998556;28;20693;-75
2022/01/21 03:36:31;;;;;;;0.20;0.20;;;-2.00;99.90;226.50;231333.00;;;;4994549;28;20291;-75
2022/01/21 03:39:02;;;;;;;0.10;0.10;;;-2.00;99.90;226.50;231333.00;;;;5013744;28;20212;-75
2022/01/21 03:41:32;;;;;;;0.20;0.20;;;-2.10;99.90;226.50;231333.00;;;;5015183;28;20227;-74
2022/01/21 03:44:02;;;;;;;0.10;0.10;;;-2.10;99.90;226.50;231333.00;;;;4999652;28;20204;-74
2022/01/21 03:46:34;;;;;;;0.20;0.20;;;-2.20;99.90;226.50;231333.00;;;;5016662;28;20342;-74
2022/01/21 03:49:07;;;;;;;0.10;0.10;;;-2.10;99.90;226.50;231333.00;;;;4998979;28;20196;-74
2022/01/21 03:51:39;;;;;;;0.20;0.20;;;-2.20;99.90;226.50;231333.00;;;;4995558;28;20231;-74
2022/01/21 03:54:10;;;;;;;0.20;0.20;;;-2.20;99.90;226.50;231333.00;;;;5006188;28;20958;-75
2022/01/21 03:56:40;;;;;;;0.20;0.20;;;-2.10;99.90;226.50;231333.00;;;;4999057;28;20196;-74
2022/01/21 03:59:09;;;;;;;0.20;0.20;;;-2.10;99.90;226.50;231333.00;;;;5012542;28;20197;-74
2022/01/21 04:01:39;;;;;;;0.20;0.20;;;-2.20;99.90;226.50;231333.00;;;;4999086;28;20323;-74
2022/01/21 04:04:09;;;;;;;0.20;0.20;;;-2.20;99.90;226.50;231333.00;;;;5014438;28;20204;-74
2022/01/21 04:06:41;;;;;;;0.17;0.17;;;-2.30;99.90;226.50;231333.00;;;;5014079;28;20235;-74
2022/01/21 04:09:13;;;;;;;0.10;0.10;;;-2.30;99.90;226.50;231333.00;;;;5013339;28;20193;-74
2022/01/21 04:11:43;;;;;;;0.20;0.20;;;-2.40;99.90;226.50;231333.00;;;;5018145;28;20212;-74
2022/01/21 04:14:13;;;;;;;0.10;0.10;;;-2.40;99.90;226.50;231333.00;;;;5029882;28;20683;-73
2022/01/21 04:16:42;;;;;;;0.20;0.20;;;-2.30;99.90;226.50;231333.00;;;;5023226;28;20222;-73
2022/01/21 04:19:12;;;;;;;0.10;0.10;;;-2.30;99.90;226.50;231333.00;;;;5009767;28;20204;-72
2022/01/21 04:21:44;;;;;;;0.10;0.10;;;-2.30;99.90;226.50;231333.00;;;;5025056;28;20238;-73
2022/01/21 04:24:18;;;;;;;0.10;0.10;;;-2.30;99.90;226.50;231333.00;;;;5026332;28;20251;-73
2022/01/21 04:26:48;;;;;;;0.20;0.20;;;-2.10;99.90;226.50;231333.00;;;;5008603;28;20203;-73
2022/01/21 04:29:18;;;;;;;0.10;0.10;;;-2.10;99.90;226.50;231333.00;;;;5014696;28;20637;-73
2022/01/21 04:31:52;;;;;;;0.20;0.20;;;-2.20;99.90;226.50;231333.00;;;;5013922;28;20230;-73
2022/01/21 04:34:27;;;;;;;0.10;0.10;;;-2.20;99.90;226.50;231333.00;;;;5003108;28;20802;-73
2022/01/21 04:36:57;;;;;;;0.20;0.20;;;-2.10;99.90;226.50;231333.00;;;;4998073;28;20782;-73
2022/01/21 04:39:39;;;;;;;0.20;0.20;;;-2.20;99.90;226.50;231333.00;;;;5004386;28;20195;-73
2022/01/21 04:47:45;;;;;;;0.20;0.20;;;-2.20;99.90;226.50;231333.00;;;;5014247;28;20279;-75
2022/01/21 04:50:17;;;;;;;0.10;0.10;;;-2.20;99.90;226.50;231333.00;;;;4997232;28;20610;-73
2022/01/21 04:52:52;;;;;;;0.20;0.20;;;-2.20;99.90;226.50;231333.00;;;;4994977;28;20218;-72
2022/01/21 04:55:38;;;;;;;0.20;0.20;;;-2.30;99.90;226.50;231333.00;;;;5012426;28;20206;-74
2022/01/21 04:58:08;;;;;;;0.20;0.20;;;-2.40;99.90;226.50;231333.00;;;;5004468;28;20212;-75
2022/01/21 05:00:39;;;;;;;0.20;0.20;;;-2.30;99.90;226.50;231333.00;;;;5012752;28;20307;-74
2022/01/21 05:03:10;;;;;;;0.20;0.20;;;-2.30;99.90;226.50;231333.00;;;;5012866;28;20312;-74
2022/01/21 05:05:42;;;;;;;0.13;0.13;;;-2.30;99.90;226.50;231333.00;;;;4997482;28;20677;-73
2022/01/21 05:08:22;;;;;;;0.20;0.20;;;-2.30;99.90;226.50;231333.00;;;;5010332;28;20224;-74
2022/01/21 05:10:54;;;;;;;0.20;0.20;;;-2.30;99.90;226.50;231333.00;;;;5014430;28;20200;-74
2022/01/21 05:13:27;;;;;;;0.17;0.17;;;-2.30;99.90;226.50;231333.00;;;;5004983;28;20235;-74
2022/01/21 05:16:04;;;;;;;0.20;0.20;;;-2.30;99.90;226.50;231333.00;;;;5013471;28;20279;-75
2022/01/21 05:18:35;;;;;;;0.20;0.20;;;-2.40;99.90;226.50;231333.00;;;;4997529;28;20207;-74
2022/01/21 05:21:26;;;;;;;0.20;0.20;;;-2.30;99.90;226.50;231333.00;;;;4995037;28;20724;-72
2022/01/21 05:24:08;;;;;;;0.10;0.10;;;-2.40;99.90;226.50;231333.00;;;;5014640;28;20223;-73
2022/01/21 05:26:42;;;;;;;0.10;0.10;;;-2.40;99.90;226.50;231333.00;;;;4998606;28;20565;-72
2022/01/21 05:29:14;;;;;;;0.20;0.20;;;-2.30;99.90;226.50;231333.00;;;;5018488;28;20199;-73
2022/01/21 05:32:01;;;;;;;0.20;0.20;;;-2.40;99.90;226.50;231333.00;;;;5001905;28;20227;-75
2022/01/21 05:34:50;;;;;;;0.20;0.20;;;-2.50;99.90;226.50;231333.00;;;;5004777;28;20355;-75
2022/01/21 05:37:24;;;;;;;0.20;0.20;;;-2.50;99.90;226.50;231333.00;;;;5015455;28;20230;-75
2022/01/21 05:40:16;;;;;;;0.20;0.20;;;-2.40;99.90;226.50;231333.00;;;;5001005;28;20211;-75
2022/01/21 05:42:59;;;;;;;0.20;0.20;;;-2.40;99.90;226.50;231333.00;;;;5006535;28;20290;-74
2022/01/21 05:48:53;;;;;;;0.10;0.10;;;-2.30;99.90;226.50;231333.00;;;;5003789;28;20203;-76
2022/01/21 05:51:42;;;;;;;0.20;0.20;;;-2.30;99.90;226.50;231333.00;;;;5007509;28;20223;-75
2022/01/21 05:54:38;;;;;;;0.10;0.10;;;-2.30;99.90;226.50;231333.00;;;;5001985;28;20228;-75
2022/01/21 05:57:37;;;;;;;0.20;0.20;;;-2.40;99.90;226.50;231333.00;;;;4946516;28;20197;-74
2022/01/21 06:00:11;;;;;;;0.20;0.20;;;-2.40;99.90;226.50;231333.00;;;;5006883;28;20637;-76
2022/01/21 06:02:48;;;;;;;0.20;0.20;;;-2.50;99.90;226.50;231333.00;;;;5000753;28;20724;-76
2022/01/21 06:05:19;;;;;;;0.15;0.15;;;-2.50;99.90;226.50;231333.00;;;;5001498;28;20327;-76
2022/01/21 06:07:49;;;;;;;0.10;0.10;;;-2.50;99.90;226.50;231333.00;;;;5006425;28;20480;-73
2022/01/21 06:10:18;;;;;;;0.20;0.20;;;-2.60;99.90;226.50;231333.00;;;;5017341;28;20200;-73
2022/01/21 06:12:48;;;;;;;0.10;0.10;;;-2.50;99.90;226.50;231333.00;;;;5002042;28;20220;-72
2022/01/21 06:15:19;;;;;;;0.20;0.20;;;-2.60;99.90;226.50;231333.00;;;;5000126;28;20709;-74
2022/01/21 06:17:49;;;;;;;0.20;0.20;;;-2.60;99.90;226.50;231333.00;;;;4999868;28;20549;-73
2022/01/21 06:20:19;;;;;;;0.20;0.20;;;-2.60;99.90;226.50;231333.00;;;;4997864;28;20200;-73
2022/01/21 06:22:48;;;;;;;0.20;0.20;;;-2.60;99.90;226.50;231333.00;;;;5001136;28;20220;-73
2022/01/21 06:25:18;;;;;;;0.20;0.20;;;-2.60;99.90;226.50;231333.00;;;;5000062;28;20208;-73
2022/01/21 06:27:48;;;;;;;0.10;0.10;;;-2.50;99.90;226.50;231333.00;;;;4999981;28;20250;-71
2022/01/21 06:30:19;;;;;;;0.20;0.20;;;-2.50;99.90;226.50;231333.00;;;;4999477;28;20201;-72
2022/01/21 06:32:49;;;;;;;0.17;0.17;;;-2.40;99.90;226.50;231333.00;;;;4997812;28;20224;-71
2022/01/21 06:35:19;;;;;;;0.10;0.10;;;-2.40;99.90;226.50;231333.00;;;;5000719;28;20598;-73
2022/01/21 06:37:49;;;;;;;0.20;0.20;;;-2.40;99.90;226.50;231333.00;;;;4997022;28;20242;-72
2022/01/21 06:40:20;;;;;;;0.20;0.20;;;-2.40;99.90;226.50;231333.00;;;;4998698;28;20200;-72
2022/01/21 06:42:50;;;;;;;0.10;0.10;;;-2.30;99.90;226.50;231333.00;;;;5002122;28;20224;-72
2022/01/21 06:45:22;;;;;;;0.20;0.20;;;-2.30;99.90;226.50;231333.00;;;;5001457;28;20595;-72
2022/01/21 06:47:51;;;;;;;0.20;0.20;;;-2.30;99.90;226.50;231333.00;;;;5000308;28;20208;-73
2022/01/21 06:50:21;;;;;;;0.20;0.20;;;-2.30;99.90;226.50;231333.00;;;;5000580;28;20192;-75
2022/01/21 06:52:51;;;;;;;0.20;0.20;;;-2.30;99.90;226.50;231333.00;;;;4999917;28;20211;-75
2022/01/21 06:55:20;;;;;;;0.20;0.20;;;-2.30;99.90;226.50;231333.00;;;;5001010;28;20259;-75
2022/01/21 06:57:50;;;;;;;0.20;0.20;;;-2.30;99.90;226.50;231333.00;;;;5000607;28;20274;-75
2022/01/21 07:00:22;;;;;;;0.10;0.10;;;-2.40;99.90;226.50;231333.00;;;;5016486;28;20196;-75
2022/01/21 07:02:54;;;;;;;0.10;0.10;;;-2.40;99.90;226.50;231333.00;;;;4999760;28;20225;-74
2022/01/21 07:05:25;;;;;;;0.20;0.20;;;-2.50;99.90;226.50;231333.00;;;;5001364;28;20231;-72
2022/01/21 07:07:56;;;;;;;0.20;0.20;;;-2.50;99.90;226.50;231333.00;;;;5000471;28;20204;-73
2022/01/21 07:10:27;;;;;;;0.20;0.20;;;-2.40;99.90;226.50;231333.00;;;;4999464;28;20207;-74
2022/01/21 07:12:57;;;;;;;0.20;0.20;;;-2.50;99.90;226.50;231333.00;;;;4999928;28;20303;-74
2022/01/21 07:15:28;;;;;;;0.20;0.20;;;-2.50;99.90;226.50;231333.00;;;;5000453;28;20274;-75
2022/01/21 07:17:57;;;;;;;0.20;0.20;;;-2.50;99.90;226.50;231333.00;;;;4967802;28;20315;-75
2022/01/21 07:20:27;;;;;;;0.20;0.20;;;-2.50;99.90;226.50;231333.00;;;;4960536;28;20202;-75
2022/01/21 07:22:57;;;;;;;0.20;0.20;;;-2.50;99.90;226.50;231333.00;;;;4961281;28;20221;-75
2022/01/21 07:25:28;;;;;;;0.20;0.20;;;-2.50;99.90;226.50;231333.00;;;;4983967;28;20660;-75
2022/01/21 07:27:58;;;;;;;0.20;0.20;;;-2.50;99.90;226.50;231333.00;;;;5001110;28;20756;-73
2022/01/21 07:30:29;;;;;;;0.20;0.20;;;-2.40;99.90;226.50;231333.00;;;;5000094;28;20195;-75
2022/01/21 07:32:59;;;;;;;0.10;0.10;;;-2.40;99.90;226.50;231333.00;;;;4998554;28;20281;-73
2022/01/21 07:35:28;;;;;;;0.20;0.20;;;-2.40;99.90;226.50;231333.00;;;;4998318;28;20565;-73
2022/01/21 07:38:14;;;;;;;0.20;0.20;;;-2.40;99.90;226.50;231333.00;;;;4997345;28;20207;-73
2022/01/21 07:40:44;;;;;;;0.20;0.20;;;-2.40;99.90;226.50;231333.00;;;;4997006;28;20196;-73
2022/01/21 07:43:14;;;;;;;0.20;0.20;;;-2.40;99.90;226.50;231333.00;;;;5000900;28;20219;-73
2022/01/21 07:45:45;;;;;;;0.20;0.20;;;-2.40;99.90;226.50;231333.00;;;;5000515;28;20253;-74
2022/01/21 07:48:15;;;;;;;0.20;0.20;;;-2.50;99.90;226.50;231333.00;;;;4998097;28;20223;-73
2022/01/21 07:50:45;;;;;;;0.20;0.20;;;-2.50;99.90;226.50;231333.00;;;;5006061;28;20262;-73
2022/01/21 07:53:15;;;;;;;0.20;0.20;;;-2.50;99.90;226.50;231333.00;;;;5009883;28;20243;-73
2022/01/21 07:55:49;;;;;;;0.20;0.20;;;-2.50;99.90;226.50;231333.00;;;;5006371;28;20212;-73
2022/01/21 07:58:20;;;;;;;0.20;0.20;;;-2.50;99.90;226.50;231333.00;;;;5009893;28;20224;-73
2022/01/21 08:00:51;;;;;;;0.20;0.20;;;-2.50;99.90;226.50;231333.00;;;;5009601;28;20250;-73
2022/01/21 08:03:21;;;;;;;0.10;0.10;;;-2.50;99.90;226.50;231333.00;;;;5012516;28;20232;-75
2022/01/21 08:05:52;;;;;;;0.20;0.20;;;-2.50;99.90;226.50;231333.00;;;;5004418;28;20199;-73
2022/01/21 08:08:21;;;;;;;0.20;0.20;;;-2.50;99.90;226.50;231333.00;;;;5001753;28;20616;-73
2022/01/21 08:10:54;;;;;;;0.20;0.20;;;-2.50;99.90;226.50;231333.00;;;;4998953;28;20939;-73
2022/01/21 08:13:27;;;;;;;0.10;0.10;;;-2.50;99.90;226.50;231333.00;;;;4997136;28;20276;-76
2022/01/21 08:15:59;;;;;;;0.20;0.20;;;-2.50;99.90;226.50;231333.00;;;;4999249;28;20219;-74
2022/01/21 08:18:32;;;;;;;0.20;0.20;;;-2.40;99.90;226.50;231333.00;;;;4998657;28;20199;-73
2022/01/21 08:21:01;;;;;;;0.20;0.20;;;-2.40;99.90;226.50;231333.00;;;;4998601;28;20204;-73
2022/01/21 08:23:31;;;;;;;0.20;0.20;;;-2.30;99.90;226.50;231333.00;;;;4998342;28;20576;-74
2022/01/21 08:26:01;;;;;;;0.20;0.20;;;-2.20;99.90;226.50;231333.00;;;;4998573;28;20208;-73
2022/01/21 08:28:31;;;;;;;0.20;0.20;;;-2.20;99.90;226.50;231333.00;;;;4999739;28;20219;-74
2022/01/21 08:31:02;;;;;;;0.20;0.20;;;-2.20;99.90;226.50;231333.00;;;;4998706;28;20203;-74
2022/01/21 08:33:32;;;;;;;0.20;0.20;;;-2.10;99.90;226.50;231333.00;;;;4998093;28;20200;-73
2022/01/21 08:36:02;;;;;;;0.20;0.20;;;-2.00;99.90;226.50;231333.00;;;;4999300;28;20291;-73
2022/01/21 08:38:31;;;;;;;0.20;0.20;;;-2.00;99.90;226.50;231333.00;;;;4999194;28;20294;-74
2022/01/21 08:41:02;;;;;;;0.10;0.10;;;-1.90;99.90;226.50;231333.00;;;;5001403;28;20200;-74
2022/01/21 08:43:31;;;;;;;0.13;0.13;;;-1.90;99.90;226.50;231333.00;;;;5000209;28;20187;-73
2022/01/21 08:46:03;;;;;;;0.20;0.20;;;-1.80;99.90;226.50;231333.00;;;;4998876;28;20378;-74
2022/01/21 08:48:32;;;;;;;0.20;0.20;;;-1.70;99.90;226.50;231333.00;;;;4999031;28;20199;-74
2022/01/21 08:51:08;;;;;;;0.20;0.20;;;-1.70;99.90;226.50;231333.00;;;;4995925;28;20200;-74
2022/01/21 08:53:41;;;;;;;0.17;0.17;;;-1.60;99.90;226.50;231333.00;;;;4997499;28;20207;-74
2022/01/21 08:56:15;;;;;;;0.10;0.10;;;-1.60;99.90;226.50;231333.00;;;;4995769;28;20235;-74
2022/01/21 08:58:47;;;;;;;0.20;0.20;;;-1.50;99.90;226.50;231333.00;;;;4998268;28;20192;-74
2022/01/21 09:01:19;;;;;;;0.10;0.10;;;-1.50;99.90;226.50;231333.00;;;;4998205;28;20859;-73
2022/01/21 09:03:49;;;;;;;0.20;0.20;;;-1.50;99.90;226.50;231333.00;;;;4998742;28;20194;-74
2022/01/21 09:06:19;;;;;;;0.10;0.10;;;-1.50;99.90;226.50;231333.00;;;;4998802;28;20271;-75
2022/01/21 09:08:49;;;;;;;0.10;0.10;;;-1.40;99.90;226.50;231333.00;;;;4997943;28;20271;-74
2022/01/21 09:11:19;;;;;;;0.20;0.20;;;-1.30;99.90;226.50;231333.00;;;;4993555;28;20200;-74
2022/01/21 09:13:49;;;;;;;0.10;0.10;;;-1.20;99.90;226.50;231333.00;;;;4997645;28;20200;-75
2022/01/21 09:16:21;;;;;;;0.10;0.10;;;-1.20;99.90;226.50;231333.00;;;;4996515;28;20313;-74
2022/01/21 09:18:55;;;;;;;0.10;0.10;;;-1.10;99.90;226.50;231333.00;;;;4998355;28;20196;-74
2022/01/21 09:21:37;;;;;;;0.13;0.13;;;-1.00;99.90;226.50;231333.00;;;;4997309;28;20221;-73
2022/01/21 09:24:08;;;;;;;0.20;0.20;;;-0.90;99.90;226.50;231333.00;;;;4996899;28;20213;-73
2022/01/21 09:26:38;;;;;;;0.20;0.20;;;-0.90;99.90;226.50;231333.00;;;;4997083;28;20212;-74
2022/01/21 09:29:09;;;;;;;0.10;0.10;;;-0.90;99.90;226.50;231333.00;;;;4996844;28;20200;-73
2022/01/21 09:31:41;;;;;;;0.17;0.17;;;-0.90;99.90;226.50;231333.00;;;;4996254;28;20231;-73
2022/01/21 09:34:29;;;;;;;0.20;0.20;;;-0.90;99.90;226.50;231333.00;;;;4999725;28;20200;-74
2022/01/21 09:37:02;;;;;;;0.20;0.20;;;-1.00;99.90;226.50;231333.00;;;;4999125;28;20219;-74
2022/01/21 09:39:32;;;;;;;0.10;0.10;;;-1.00;99.90;226.50;231333.00;;;;4994900;28;20204;-74
2022/01/21 09:42:06;;;;;;;0.17;0.17;;;-0.90;99.90;226.50;231333.00;;;;4994208;28;20285;-74
2022/01/21 09:44:38;;;;;;;0.10;0.10;;;-0.90;99.90;226.50;231333.00;;;;4997621;28;20571;-74
2022/01/21 09:47:11;;;;;;;0.20;0.20;;;-0.90;99.90;226.50;231333.00;;;;4997585;28;20275;-74
2022/01/21 09:49:42;;;;;;;0.20;0.20;;;-0.80;99.90;226.50;231333.00;;;;4998217;28;20201;-73
2022/01/21 09:52:16;;;;;;;0.20;0.20;;;-0.80;99.90;226.50;231333.00;;;;4998084;28;20232;-74
2022/01/21 09:54:48;;;;;;;0.20;0.20;;;-0.80;99.90;226.50;231333.00;;;;4997435;28;20302;-74
2022/01/21 09:57:23;;;;;;;0.20;0.20;;;-0.70;99.90;226.50;231333.00;;;;4997769;28;20224;-74
2022/01/21 09:59:55;;;;;;;0.20;0.20;;;-0.70;99.90;226.50;231333.00;;;;5000050;28;20232;-74
2022/01/21 10:02:30;;;;;;;0.13;0.13;;;-0.70;99.90;226.50;231333.00;;;;4998794;28;20221;-73
2022/01/21 10:05:01;;;;;;;0.10;0.10;;;-0.60;99.90;226.50;231333.00;;;;4995165;28;20210;-73
2022/01/21 10:07:34;;;;;;;0.10;0.10;;;-0.60;99.90;226.50;231333.00;;;;4997768;28;20196;-74
2022/01/21 10:10:08;;;;;;;0.20;0.20;;;-0.60;99.90;226.50;231333.00;;;;4999119;28;20666;-73
2022/01/21 10:13:01;;;;;;;0.10;0.10;;;-0.60;99.90;226.50;231333.00;;;;4998279;28;20254;-73
2022/01/21 10:15:32;;;;;;;0.20;0.20;;;-0.60;99.90;226.50;231333.00;;;;4998959;28;20204;-73
2022/01/21 10:18:06;;;;;;;0.10;0.10;;;-0.60;99.90;226.50;231333.00;;;;5000382;28;20716;-73
2022/01/21 10:20:56;;;;;;;0.20;0.20;;;-0.60;99.90;226.50;231333.00;;;;5001972;28;20192;-73
2022/01/21 10:23:27;;;;;;;0.10;0.10;;;-0.50;99.90;226.50;231333.00;;;;5001076;28;20624;-74
2022/01/21 10:26:04;;;;;;;0.10;0.10;;;-0.50;99.90;226.50;231333.00;;;;4998641;28;20201;-73
2022/01/21 10:28:34;;;;;;;0.10;0.10;;;-0.40;99.90;226.50;231333.00;;;;5001586;28;20803;-73
2022/01/21 10:31:12;;;;;;;0.20;0.20;;;-0.40;99.90;226.50;231333.00;;;;5000458;28;20268;-73
2022/01/21 10:33:47;;;;;;;0.10;0.10;;;-0.30;99.90;226.50;231333.00;;;;5002143;28;20605;-73
2022/01/21 10:36:24;;;;;;;0.10;0.10;;;-0.30;99.90;226.50;231333.00;;;;4999282;28;20283;-73
2022/01/21 10:39:02;;;;;;;0.10;0.10;;;-0.20;99.90;226.50;231333.00;;;;5001492;28;20262;-74
2022/01/21 10:41:35;;;;;;;0.13;0.13;;;-0.20;99.90;226.50;231333.00;;;;5002106;28;20271;-73
2022/01/21 10:44:08;;;;;;;0.10;0.10;;;-0.20;99.90;226.50;231333.00;;;;5003241;28;20262;-73
2022/01/21 10:46:39;;;;;;;0.20;0.20;;;-0.20;99.90;226.50;231333.00;;;;5002075;28;20239;-73
2022/01/21 10:49:13;;;;;;;0.10;0.10;;;-0.10;99.90;226.50;231333.00;;;;5001006;28;20196;-73
2022/01/21 10:51:51;;;;;;;0.10;0.10;;;-0.10;99.90;226.50;231333.00;;;;5001985;28;20231;-73
2022/01/21 10:54:26;;;;;;;0.10;0.10;;;0.00;99.90;226.50;231333.00;;;;4999516;28;20203;-73
2022/01/21 10:57:13;;;;;;;0.10;0.10;;;0.00;99.90;226.50;231333.00;;;;4999806;28;20245;-73
2022/01/21 10:59:53;;;;;;;0.10;0.10;;;0.00;99.90;226.50;231333.00;;;;5002077;28;20191;-73
2022/01/21 11:02:33;;;;;;;0.10;0.10;;;0.00;99.90;226.50;231333.00;;;;5002119;28;20223;-73
2022/01/21 11:05:10;;;;;;;0.20;0.20;;;0.10;99.90;226.50;231333.00;;;;4999816;28;20211;-73
2022/01/21 11:07:59;;;;;;;0.10;0.10;;;0.10;99.90;226.50;231333.00;;;;4998259;28;20523;-73
2022/01/21 11:10:50;;;;;;;0.20;0.20;;;0.10;99.90;226.50;231333.00;;;;5002026;28;20208;-73
2022/01/21 11:13:38;;;;;;;0.10;0.10;;;0.10;99.90;226.50;231333.00;;;;4998520;28;20224;-73
2022/01/21 11:16:16;;;;;;;0.10;0.10;;;0.10;99.90;226.50;231333.00;;;;4999347;28;20251;-73
2022/01/21 11:19:08;;;;;;;0.10;0.10;;;0.10;99.90;226.50;231333.00;;;;5000167;28;20203;-73
2022/01/21 11:21:53;;;;;;;0.10;0.10;;;0.10;99.90;226.50;231333.00;;;;5000466;28;20211;-73
2022/01/21 11:24:25;;;;;;;0.10;0.10;;;0.10;99.90;226.50;231333.00;;;;4997025;28;20211;-73
2022/01/21 11:27:11;;;;;;;0.20;0.20;;;0.20;99.90;226.50;231333.00;;;;4999428;28;20266;-73
2022/01/21 11:29:43;;;;;;;0.10;0.10;;;0.20;99.90;226.50;231333.00;;;;4996723;28;20730;-73
2022/01/21 11:32:14;;;;;;;0.10;0.10;;;0.30;99.90;226.50;231333.00;;;;5001127;28;20282;-73
2022/01/21 11:34:44;;;;;;;0.10;0.10;;;0.20;99.90;226.50;231333.00;;;;5000281;28;20197;-73
2022/01/21 11:37:17;;;;;;;0.20;0.20;;;0.30;99.90;226.50;231333.00;;;;5000500;28;20698;-74
2022/01/21 11:39:51;;;;;;;0.10;0.10;;;0.30;99.90;226.50;231333.00;;;;5001512;28;20283;-73
2022/01/21 11:42:21;;;;;;;0.10;0.10;;;0.30;99.90;226.50;231333.00;;;;4997113;28;20261;-73
2022/01/21 11:45:03;;;;;;;0.10;0.10;;;0.30;99.90;226.50;231333.00;;;;5001382;28;20203;-73